sensor_id;sensor_type;location;lat;lon;timestamp;pressure;altitude;pressure_sealevel;temperature;humidity
59168;BME280;70412;55.048;73.268;2023-06-26T00:01:15;99646.13;;;8.83;100.00
59168;BME280;70412;55.048;73.268;2023-06-26T00:04:18;99635.66;;;8.83;100.00
59168;BME280;70412;55.048;73.268;2023-06-26T00:07:20;99592.06;;;8.59;100.00
59168;BME280;70412;55.048;73.268;2023-06-26T00:10:24;99621.63;;;8.84;100.00
59168;BME280;70412;55.048;73.268;2023-06-26T00:13:26;99627.03;;;9.05;100.00
59168;BME280;70412;55.048;73.268;2023-06-26T00:16:29;99631.59;;;9.14;100.00
59168;BME280;70412;55.048;73.268;2023-06-26T00:19:33;99627.19;;;9.14;100.00
59168;BME280;70412;55.048;73.268;2023-06-26T00:22:36;99628.94;;;9.27;100.00
59168;BME280;70412;55.048;73.268;2023-06-26T00:25:43;99635.38;;;9.45;100.00
59168;BME280;70412;55.048;73.268;2023-06-26T00:28:48;99606.81;;;9.53;98.68
59168;BME280;70412;55.048;73.268;2023-06-26T00:31:50;99639.00;;;9.77;97.53
59168;BME280;70412;55.048;73.268;2023-06-26T00:34:53;99629.19;;;10.02;96.86
59168;BME280;70412;55.048;73.268;2023-06-26T00:37:55;99635.59;;;10.31;96.49
59168;BME280;70412;55.048;73.268;2023-06-26T00:40:57;99628.56;;;10.43;95.17
59168;BME280;70412;55.048;73.268;2023-06-26T00:44:00;99630.47;;;10.73;93.28
59168;BME280;70412;55.048;73.268;2023-06-26T00:47:02;99629.25;;;10.88;91.39
59168;BME280;70412;55.048;73.268;2023-06-26T00:50:06;99627.41;;;11.21;91.14
59168;BME280;70412;55.048;73.268;2023-06-26T00:53:12;99614.28;;;11.00;90.11
59168;BME280;70412;55.048;73.268;2023-06-26T00:56:18;99626.44;;;11.22;90.78
59168;BME280;70412;55.048;73.268;2023-06-26T00:59:21;99631.56;;;11.44;90.02
59168;BME280;70412;55.048;73.268;2023-06-26T01:02:24;99634.19;;;11.44;89.38
59168;BME280;70412;55.048;73.268;2023-06-26T01:05:27;99620.84;;;11.57;89.39
59168;BME280;70412;55.048;73.268;2023-06-26T01:08:36;99631.44;;;11.46;89.39
59168;BME280;70412;55.048;73.268;2023-06-26T01:11:38;99631.81;;;11.20;89.84
59168;BME280;70412;55.048;73.268;2023-06-26T01:14:41;99635.81;;;11.15;89.94
59168;BME280;70412;55.048;73.268;2023-06-26T01:17:44;99631.25;;;11.17;90.41
59168;BME280;70412;55.048;73.268;2023-06-26T01:20:49;99620.81;;;11.05;90.80
59168;BME280;70412;55.048;73.268;2023-06-26T01:24:02;99616.78;;;11.01;91.03
59168;BME280;70412;55.048;73.268;2023-06-26T01:27:07;99595.34;;;10.96;90.71
59168;BME280;70412;55.048;73.268;2023-06-26T01:30:11;99606.72;;;11.07;89.94
59168;BME280;70412;55.048;73.268;2023-06-26T01:33:15;99618.50;;;11.33;90.34
59168;BME280;70412;55.048;73.268;2023-06-26T01:36:18;99623.25;;;11.39;89.61
59168;BME280;70412;55.048;73.268;2023-06-26T01:39:20;99626.28;;;11.65;88.46
59168;BME280;70412;55.048;73.268;2023-06-26T01:42:23;99624.44;;;11.56;88.44
59168;BME280;70412;55.048;73.268;2023-06-26T01:45:29;99621.59;;;11.69;88.53
59168;BME280;70412;55.048;73.268;2023-06-26T01:48:44;99623.00;;;11.73;88.39
59168;BME280;70412;55.048;73.268;2023-06-26T01:52:03;99621.72;;;11.67;87.73
59168;BME280;70412;55.048;73.268;2023-06-26T01:58:24;99618.53;;;11.94;87.06
59168;BME280;70412;55.048;73.268;2023-06-26T02:01:29;99604.44;;;11.95;86.55
59168;BME280;70412;55.048;73.268;2023-06-26T02:04:33;99621.69;;;12.18;86.75
59168;BME280;70412;55.048;73.268;2023-06-26T02:07:35;99614.16;;;12.14;86.16
59168;BME280;70412;55.048;73.268;2023-06-26T02:10:38;99602.34;;;12.39;84.61
59168;BME280;70412;55.048;73.268;2023-06-26T02:13:40;99608.66;;;12.27;84.60
59168;BME280;70412;55.048;73.268;2023-06-26T02:16:43;99587.97;;;12.52;84.45
59168;BME280;70412;55.048;73.268;2023-06-26T02:19:45;99600.69;;;12.57;83.44
59168;BME280;70412;55.048;73.268;2023-06-26T02:22:51;99600.97;;;12.83;82.90
59168;BME280;70412;55.048;73.268;2023-06-26T02:25:53;99605.34;;;13.50;79.41
59168;BME280;70412;55.048;73.268;2023-06-26T02:28:56;99597.69;;;13.57;78.23
59168;BME280;70412;55.048;73.268;2023-06-26T02:31:58;99585.69;;;13.44;78.36
59168;BME280;70412;55.048;73.268;2023-06-26T02:35:01;99587.03;;;13.86;76.91
59168;BME280;70412;55.048;73.268;2023-06-26T02:38:03;99585.66;;;14.09;76.00
59168;BME280;70412;55.048;73.268;2023-06-26T02:41:06;99577.66;;;14.46;76.17
59168;BME280;70412;55.048;73.268;2023-06-26T02:44:09;99571.44;;;14.55;74.69
59168;BME280;70412;55.048;73.268;2023-06-26T02:47:14;99551.41;;;14.98;73.36
59168;BME280;70412;55.048;73.268;2023-06-26T02:50:19;99569.19;;;14.78;72.11
59168;BME280;70412;55.048;73.268;2023-06-26T02:53:38;99553.72;;;15.01;71.73
59168;BME280;70412;55.048;73.268;2023-06-26T02:56:46;99552.53;;;15.21;71.10
59168;BME280;70412;55.048;73.268;2023-06-26T02:59:48;99552.44;;;15.65;69.97
59168;BME280;70412;55.048;73.268;2023-06-26T03:02:51;99552.56;;;15.90;68.60
59168;BME280;70412;55.048;73.268;2023-06-26T03:05:57;99542.78;;;16.57;65.94
59168;BME280;70412;55.048;73.268;2023-06-26T03:09:01;99522.59;;;16.80;66.95
59168;BME280;70412;55.048;73.268;2023-06-26T03:12:04;99535.13;;;17.35;62.48
59168;BME280;70412;55.048;73.268;2023-06-26T03:15:09;99535.25;;;17.42;62.15
59168;BME280;70412;55.048;73.268;2023-06-26T03:18:14;99531.53;;;16.95;62.89
59168;BME280;70412;55.048;73.268;2023-06-26T03:21:17;99515.53;;;16.81;65.49
59168;BME280;70412;55.048;73.268;2023-06-26T03:24:20;99526.38;;;17.10;62.50
59168;BME280;70412;55.048;73.268;2023-06-26T03:27:22;99535.00;;;17.12;62.60
59168;BME280;70412;55.048;73.268;2023-06-26T03:30:26;99529.09;;;17.97;60.88
59168;BME280;70412;55.048;73.268;2023-06-26T03:33:31;99520.34;;;17.49;61.49
59168;BME280;70412;55.048;73.268;2023-06-26T03:36:34;99513.84;;;18.21;59.11
59168;BME280;70412;55.048;73.268;2023-06-26T03:39:38;99505.53;;;18.02;58.47
59168;BME280;70412;55.048;73.268;2023-06-26T03:42:44;99514.88;;;17.42;59.29
59168;BME280;70412;55.048;73.268;2023-06-26T03:45:47;99517.16;;;17.53;59.02
59168;BME280;70412;55.048;73.268;2023-06-26T03:48:49;99499.50;;;17.85;57.17
59168;BME280;70412;55.048;73.268;2023-06-26T03:51:52;99511.09;;;18.15;57.13
59168;BME280;70412;55.048;73.268;2023-06-26T03:54:54;99504.44;;;17.88;57.65
59168;BME280;70412;55.048;73.268;2023-06-26T03:57:57;99509.75;;;17.88;58.35
59168;BME280;70412;55.048;73.268;2023-06-26T04:00:59;99500.69;;;18.28;58.19
59168;BME280;70412;55.048;73.268;2023-06-26T04:04:02;99499.03;;;18.27;58.36
59168;BME280;70412;55.048;73.268;2023-06-26T04:07:07;99489.25;;;18.73;57.14
59168;BME280;70412;55.048;73.268;2023-06-26T04:10:09;99500.31;;;19.59;56.29
59168;BME280;70412;55.048;73.268;2023-06-26T04:13:12;99486.81;;;19.75;55.13
59168;BME280;70412;55.048;73.268;2023-06-26T04:16:20;99489.13;;;19.19;54.14
59168;BME280;70412;55.048;73.268;2023-06-26T04:19:23;99483.44;;;20.02;53.33
59168;BME280;70412;55.048;73.268;2023-06-26T04:22:27;99492.03;;;19.83;54.35
59168;BME280;70412;55.048;73.268;2023-06-26T04:25:30;99488.38;;;19.84;53.11
59168;BME280;70412;55.048;73.268;2023-06-26T04:28:33;99477.19;;;19.74;53.42
59168;BME280;70412;55.048;73.268;2023-06-26T04:31:38;99470.03;;;19.75;52.41
59168;BME280;70412;55.048;73.268;2023-06-26T04:34:41;99465.66;;;20.46;50.37
59168;BME280;70412;55.048;73.268;2023-06-26T04:37:46;99457.00;;;20.37;49.04
59168;BME280;70412;55.048;73.268;2023-06-26T04:40:49;99456.84;;;20.45;48.32
59168;BME280;70412;55.048;73.268;2023-06-26T04:43:51;99466.59;;;20.59;48.90
59168;BME280;70412;55.048;73.268;2023-06-26T04:46:54;99458.47;;;20.03;50.41
59168;BME280;70412;55.048;73.268;2023-06-26T04:49:56;99454.63;;;20.77;49.18
59168;BME280;70412;55.048;73.268;2023-06-26T04:52:59;99452.06;;;20.34;48.80
59168;BME280;70412;55.048;73.268;2023-06-26T04:56:02;99440.47;;;20.76;47.92
59168;BME280;70412;55.048;73.268;2023-06-26T04:59:04;99440.00;;;20.66;48.73
59168;BME280;70412;55.048;73.268;2023-06-26T05:02:07;99440.41;;;21.26;46.58
59168;BME280;70412;55.048;73.268;2023-06-26T05:05:10;99441.50;;;21.03;48.66
59168;BME280;70412;55.048;73.268;2023-06-26T05:08:22;99433.50;;;21.03;46.64
59168;BME280;70412;55.048;73.268;2023-06-26T05:11:27;99410.88;;;20.99;46.10
59168;BME280;70412;55.048;73.268;2023-06-26T05:14:30;99428.94;;;21.32;45.69
59168;BME280;70412;55.048;73.268;2023-06-26T05:17:32;99430.97;;;21.30;46.62
59168;BME280;70412;55.048;73.268;2023-06-26T05:20:35;99415.34;;;21.20;46.78
59168;BME280;70412;55.048;73.268;2023-06-26T05:23:38;99419.16;;;21.45;46.35
59168;BME280;70412;55.048;73.268;2023-06-26T05:26:41;99425.09;;;21.41;46.58
59168;BME280;70412;55.048;73.268;2023-06-26T05:29:44;99400.78;;;21.70;44.44
59168;BME280;70412;55.048;73.268;2023-06-26T05:32:47;99414.28;;;21.62;43.76
59168;BME280;70412;55.048;73.268;2023-06-26T05:35:53;99417.78;;;21.63;44.74
59168;BME280;70412;55.048;73.268;2023-06-26T05:38:55;99409.81;;;20.87;43.55
59168;BME280;70412;55.048;73.268;2023-06-26T05:41:58;99406.41;;;21.41;42.41
59168;BME280;70412;55.048;73.268;2023-06-26T05:45:16;99406.88;;;21.64;41.70
59168;BME280;70412;55.048;73.268;2023-06-26T05:48:19;99399.03;;;21.43;43.30
59168;BME280;70412;55.048;73.268;2023-06-26T05:51:22;99386.81;;;21.75;42.19
59168;BME280;70412;55.048;73.268;2023-06-26T05:54:25;99395.13;;;22.26;44.26
59168;BME280;70412;55.048;73.268;2023-06-26T05:57:29;99379.91;;;22.20;41.95
59168;BME280;70412;55.048;73.268;2023-06-26T06:00:32;99390.59;;;22.53;42.76
59168;BME280;70412;55.048;73.268;2023-06-26T06:03:35;99378.06;;;22.54;41.45
59168;BME280;70412;55.048;73.268;2023-06-26T06:06:37;99386.50;;;22.70;41.67
59168;BME280;70412;55.048;73.268;2023-06-26T06:09:40;99363.84;;;22.86;40.82
59168;BME280;70412;55.048;73.268;2023-06-26T06:12:43;99376.81;;;22.63;41.09
59168;BME280;70412;55.048;73.268;2023-06-26T06:15:46;99379.66;;;22.81;39.29
59168;BME280;70412;55.048;73.268;2023-06-26T06:18:48;99372.88;;;22.85;40.65
59168;BME280;70412;55.048;73.268;2023-06-26T06:21:50;99380.06;;;22.91;38.78
59168;BME280;70412;55.048;73.268;2023-06-26T06:24:53;99376.00;;;22.42;37.98
59168;BME280;70412;55.048;73.268;2023-06-26T06:27:55;99375.91;;;23.02;38.98
59168;BME280;70412;55.048;73.268;2023-06-26T06:31:01;99374.34;;;22.68;38.02
59168;BME280;70412;55.048;73.268;2023-06-26T06:34:03;99356.56;;;23.07;37.45
59168;BME280;70412;55.048;73.268;2023-06-26T06:37:06;99364.63;;;22.93;39.24
59168;BME280;70412;55.048;73.268;2023-06-26T06:40:10;99354.16;;;23.43;38.56
59168;BME280;70412;55.048;73.268;2023-06-26T06:43:13;99348.44;;;23.33;37.56
59168;BME280;70412;55.048;73.268;2023-06-26T06:46:16;99354.56;;;22.82;38.72
59168;BME280;70412;55.048;73.268;2023-06-26T06:49:19;99339.59;;;22.68;38.37
59168;BME280;70412;55.048;73.268;2023-06-26T06:52:21;99339.59;;;22.68;38.91
59168;BME280;70412;55.048;73.268;2023-06-26T06:55:24;99337.56;;;22.44;39.26
59168;BME280;70412;55.048;73.268;2023-06-26T06:58:28;99338.81;;;22.41;40.13
59168;BME280;70412;55.048;73.268;2023-06-26T07:01:32;99326.50;;;22.07;40.30
59168;BME280;70412;55.048;73.268;2023-06-26T07:04:35;99331.56;;;21.62;42.05
59168;BME280;70412;55.048;73.268;2023-06-26T07:07:38;99317.13;;;21.30;41.92
59168;BME280;70412;55.048;73.268;2023-06-26T07:10:40;99312.38;;;21.19;41.42
59168;BME280;70412;55.048;73.268;2023-06-26T07:13:43;99329.16;;;21.13;42.81
59168;BME280;70412;55.048;73.268;2023-06-26T07:16:45;99329.53;;;21.03;41.42
59168;BME280;70412;55.048;73.268;2023-06-26T07:19:49;99327.25;;;20.66;41.93
59168;BME280;70412;55.048;73.268;2023-06-26T07:22:52;99338.28;;;20.56;41.42
59168;BME280;70412;55.048;73.268;2023-06-26T07:25:54;99341.53;;;20.51;40.75
59168;BME280;70412;55.048;73.268;2023-06-26T07:28:57;99324.03;;;19.86;43.73
59168;BME280;70412;55.048;73.268;2023-06-26T07:31:59;99329.69;;;20.05;42.75
59168;BME280;70412;55.048;73.268;2023-06-26T07:35:02;99340.84;;;19.93;42.30
59168;BME280;70412;55.048;73.268;2023-06-26T07:38:04;99332.31;;;19.77;43.55
59168;BME280;70412;55.048;73.268;2023-06-26T07:41:07;99328.88;;;20.04;42.40
59168;BME280;70412;55.048;73.268;2023-06-26T07:44:09;99322.41;;;20.41;40.94
59168;BME280;70412;55.048;73.268;2023-06-26T07:47:12;99322.63;;;19.90;40.50
59168;BME280;70412;55.048;73.268;2023-06-26T07:50:15;99311.78;;;19.92;42.59
59168;BME280;70412;55.048;73.268;2023-06-26T07:53:24;99301.47;;;19.61;41.93
59168;BME280;70412;55.048;73.268;2023-06-26T07:56:29;99301.81;;;19.36;42.56
59168;BME280;70412;55.048;73.268;2023-06-26T07:59:32;99301.91;;;19.28;42.67
59168;BME280;70412;55.048;73.268;2023-06-26T08:02:34;99311.09;;;19.62;42.94
59168;BME280;70412;55.048;73.268;2023-06-26T08:05:39;99313.19;;;19.66;44.57
59168;BME280;70412;55.048;73.268;2023-06-26T08:08:42;99340.28;;;19.55;45.63
59168;BME280;70412;55.048;73.268;2023-06-26T08:11:45;99350.56;;;18.93;46.62
59168;BME280;70412;55.048;73.268;2023-06-26T08:14:47;99372.91;;;18.54;46.94
59168;BME280;70412;55.048;73.268;2023-06-26T08:17:49;99400.25;;;17.40;50.91
59168;BME280;70412;55.048;73.268;2023-06-26T08:20:52;99425.63;;;15.90;64.89
59168;BME280;70412;55.048;73.268;2023-06-26T08:23:55;99426.56;;;14.44;75.90
59168;BME280;70412;55.048;73.268;2023-06-26T08:26:57;99425.19;;;14.58;78.50
59168;BME280;70412;55.048;73.268;2023-06-26T08:30:00;99430.84;;;14.89;78.40
59168;BME280;70412;55.048;73.268;2023-06-26T08:33:04;99427.31;;;14.54;81.90
59168;BME280;70412;55.048;73.268;2023-06-26T08:36:06;99425.66;;;14.53;85.10
59168;BME280;70412;55.048;73.268;2023-06-26T08:39:11;99411.25;;;14.66;85.58
59168;BME280;70412;55.048;73.268;2023-06-26T08:42:14;99396.91;;;14.68;83.29
59168;BME280;70412;55.048;73.268;2023-06-26T08:45:16;99398.75;;;14.76;84.47
59168;BME280;70412;55.048;73.268;2023-06-26T08:48:21;99398.66;;;14.85;81.90
59168;BME280;70412;55.048;73.268;2023-06-26T08:51:25;99387.59;;;14.82;81.92
59168;BME280;70412;55.048;73.268;2023-06-26T08:54:33;99394.63;;;14.99;83.79
59168;BME280;70412;55.048;73.268;2023-06-26T08:57:37;99385.88;;;15.07;83.80
59168;BME280;70412;55.048;73.268;2023-06-26T09:00:39;99376.22;;;15.23;85.16
59168;BME280;70412;55.048;73.268;2023-06-26T09:03:42;99357.22;;;15.28;86.00
59168;BME280;70412;55.048;73.268;2023-06-26T09:06:45;99349.78;;;15.23;83.08
59168;BME280;70412;55.048;73.268;2023-06-26T09:09:48;99340.25;;;15.39;82.65
59168;BME280;70412;55.048;73.268;2023-06-26T09:12:50;99330.56;;;15.64;79.71
59168;BME280;70412;55.048;73.268;2023-06-26T09:15:54;99325.97;;;16.14;80.34
59168;BME280;70412;55.048;73.268;2023-06-26T09:18:57;99322.06;;;16.58;77.66
59168;BME280;70412;55.048;73.268;2023-06-26T09:22:00;99294.94;;;16.56;74.17
59168;BME280;70412;55.048;73.268;2023-06-26T09:25:03;99300.91;;;17.28;72.19
59168;BME280;70412;55.048;73.268;2023-06-26T09:28:06;99302.66;;;17.13;75.33
59168;BME280;70412;55.048;73.268;2023-06-26T09:31:08;99299.56;;;16.70;72.23
59168;BME280;70412;55.048;73.268;2023-06-26T09:34:12;99270.53;;;16.85;69.91
59168;BME280;70412;55.048;73.268;2023-06-26T09:37:15;99290.66;;;17.25;69.69
59168;BME280;70412;55.048;73.268;2023-06-26T09:40:17;99294.53;;;18.06;69.50
59168;BME280;70412;55.048;73.268;2023-06-26T09:43:20;99283.66;;;18.01;68.81
59168;BME280;70412;55.048;73.268;2023-06-26T09:46:28;99282.75;;;18.08;67.52
59168;BME280;70412;55.048;73.268;2023-06-26T09:49:31;99282.97;;;18.51;67.76
59168;BME280;70412;55.048;73.268;2023-06-26T09:52:35;99222.91;;;18.20;66.25
59168;BME280;70412;55.048;73.268;2023-06-26T09:55:38;99267.59;;;18.61;63.09
59168;BME280;70412;55.048;73.268;2023-06-26T09:58:42;99269.00;;;17.90;64.47
59168;BME280;70412;55.048;73.268;2023-06-26T10:01:46;99267.38;;;17.66;64.22
59168;BME280;70412;55.048;73.268;2023-06-26T10:04:51;99260.31;;;17.81;66.83
59168;BME280;70412;55.048;73.268;2023-06-26T10:07:54;99250.38;;;17.98;65.67
59168;BME280;70412;55.048;73.268;2023-06-26T10:10:57;99237.44;;;18.10;62.42
59168;BME280;70412;55.048;73.268;2023-06-26T10:14:03;99208.97;;;18.48;61.34
59168;BME280;70412;55.048;73.268;2023-06-26T10:17:09;99220.53;;;18.26;60.98
59168;BME280;70412;55.048;73.268;2023-06-26T10:20:15;99214.69;;;18.15;61.47
59168;BME280;70412;55.048;73.268;2023-06-26T10:23:19;99216.13;;;18.62;61.45
59168;BME280;70412;55.048;73.268;2023-06-26T10:26:24;99211.34;;;19.30;59.25
59168;BME280;70412;55.048;73.268;2023-06-26T10:29:28;99191.88;;;19.72;56.58
59168;BME280;70412;55.048;73.268;2023-06-26T10:32:33;99166.41;;;18.71;57.94
59168;BME280;70412;55.048;73.268;2023-06-26T10:35:45;99193.69;;;19.01;59.10
59168;BME280;70412;55.048;73.268;2023-06-26T10:38:52;99193.94;;;18.85;58.90
59168;BME280;70412;55.048;73.268;2023-06-26T10:41:55;99171.91;;;19.33;58.05
59168;BME280;70412;55.048;73.268;2023-06-26T10:45:19;99175.28;;;18.99;57.42
59168;BME280;70412;55.048;73.268;2023-06-26T10:48:22;99155.66;;;20.06;56.29
59168;BME280;70412;55.048;73.268;2023-06-26T10:51:26;99143.00;;;19.80;52.74
59168;BME280;70412;55.048;73.268;2023-06-26T10:54:29;99170.69;;;19.57;51.82
59168;BME280;70412;55.048;73.268;2023-06-26T10:57:32;99169.13;;;19.97;52.09
59168;BME280;70412;55.048;73.268;2023-06-26T11:00:49;99152.53;;;20.30;51.64
59168;BME280;70412;55.048;73.268;2023-06-26T11:04:06;99153.41;;;20.37;53.43
59168;BME280;70412;55.048;73.268;2023-06-26T11:07:23;99147.50;;;20.14;52.39
59168;BME280;70412;55.048;73.268;2023-06-26T11:10:25;99140.44;;;19.37;53.32
59168;BME280;70412;55.048;73.268;2023-06-26T11:13:28;99135.72;;;18.90;55.49
59168;BME280;70412;55.048;73.268;2023-06-26T11:16:32;99129.91;;;19.01;56.59
59168;BME280;70412;55.048;73.268;2023-06-26T11:19:35;99133.41;;;19.29;57.50
59168;BME280;70412;55.048;73.268;2023-06-26T11:22:42;99126.28;;;19.08;57.78
59168;BME280;70412;55.048;73.268;2023-06-26T11:25:44;99126.38;;;18.94;55.28
59168;BME280;70412;55.048;73.268;2023-06-26T11:28:54;99122.50;;;19.18;54.78
59168;BME280;70412;55.048;73.268;2023-06-26T11:32:03;99110.91;;;19.25;54.67
59168;BME280;70412;55.048;73.268;2023-06-26T11:35:07;99098.38;;;19.19;53.90
59168;BME280;70412;55.048;73.268;2023-06-26T11:38:11;99095.22;;;19.09;53.61
59168;BME280;70412;55.048;73.268;2023-06-26T11:41:17;99091.00;;;19.42;52.98
59168;BME280;70412;55.048;73.268;2023-06-26T11:44:21;99078.03;;;19.05;53.26
59168;BME280;70412;55.048;73.268;2023-06-26T11:47:24;99067.53;;;19.25;54.62
59168;BME280;70412;55.048;73.268;2023-06-26T11:50:27;99057.63;;;19.12;53.53
59168;BME280;70412;55.048;73.268;2023-06-26T11:53:29;99060.44;;;19.32;53.60
59168;BME280;70412;55.048;73.268;2023-06-26T11:56:31;99031.81;;;19.62;51.93
59168;BME280;70412;55.048;73.268;2023-06-26T11:59:38;99039.97;;;19.54;51.86
59168;BME280;70412;55.048;73.268;2023-06-26T12:02:42;99022.81;;;19.63;50.29
59168;BME280;70412;55.048;73.268;2023-06-26T12:05:46;99033.50;;;20.24;48.85
59168;BME280;70412;55.048;73.268;2023-06-26T12:08:49;99022.81;;;19.63;49.21
59168;BME280;70412;55.048;73.268;2023-06-26T12:11:55;99009.00;;;19.87;49.63
59168;BME280;70412;55.048;73.268;2023-06-26T12:14:58;98986.84;;;19.67;50.09
59168;BME280;70412;55.048;73.268;2023-06-26T12:18:08;99008.53;;;19.70;50.07
59168;BME280;70412;55.048;73.268;2023-06-26T12:24:39;98982.56;;;19.79;49.46
59168;BME280;70412;55.048;73.268;2023-06-26T12:27:45;98990.94;;;19.76;49.66
59168;BME280;70412;55.048;73.268;2023-06-26T12:31:17;98990.50;;;19.66;50.53
59168;BME280;70412;55.048;73.268;2023-06-26T12:34:33;98996.06;;;19.36;51.24
59168;BME280;70412;55.048;73.268;2023-06-26T12:37:39;98979.47;;;19.00;51.72
59168;BME280;70412;55.048;73.268;2023-06-26T12:40:45;98987.19;;;19.23;51.20
59168;BME280;70412;55.048;73.268;2023-06-26T12:43:49;98980.72;;;19.38;51.26
59168;BME280;70412;55.048;73.268;2023-06-26T12:47:00;98959.97;;;19.21;51.29
59168;BME280;70412;55.048;73.268;2023-06-26T12:50:05;98971.19;;;19.16;51.16
59168;BME280;70412;55.048;73.268;2023-06-26T12:53:08;98974.63;;;19.10;51.48
59168;BME280;70412;55.048;73.268;2023-06-26T12:56:11;98963.03;;;18.90;51.13
59168;BME280;70412;55.048;73.268;2023-06-26T12:59:14;98974.16;;;19.00;50.52
59168;BME280;70412;55.048;73.268;2023-06-26T13:02:16;98975.63;;;19.09;51.03
59168;BME280;70412;55.048;73.268;2023-06-26T13:05:20;98963.59;;;19.13;50.63
59168;BME280;70412;55.048;73.268;2023-06-26T13:08:22;98964.00;;;19.10;49.90
59168;BME280;70412;55.048;73.268;2023-06-26T13:11:25;98961.94;;;19.12;50.35
59168;BME280;70412;55.048;73.268;2023-06-26T13:14:27;98927.56;;;19.04;50.10
59168;BME280;70412;55.048;73.268;2023-06-26T13:17:30;98955.69;;;18.92;50.72
59168;BME280;70412;55.048;73.268;2023-06-26T13:20:32;98952.81;;;18.87;50.88
59168;BME280;70412;55.048;73.268;2023-06-26T13:23:34;98952.47;;;18.68;52.37
59168;BME280;70412;55.048;73.268;2023-06-26T13:26:37;98934.88;;;18.46;52.77
59168;BME280;70412;55.048;73.268;2023-06-26T13:29:39;98935.97;;;18.51;53.37
59168;BME280;70412;55.048;73.268;2023-06-26T13:32:42;98924.59;;;18.58;53.20
59168;BME280;70412;55.048;73.268;2023-06-26T13:35:45;98926.94;;;18.24;55.50
59168;BME280;70412;55.048;73.268;2023-06-26T13:38:47;98927.31;;;18.21;55.36
59168;BME280;70412;55.048;73.268;2023-06-26T13:41:57;98910.16;;;18.17;55.10
59168;BME280;70412;55.048;73.268;2023-06-26T13:44:59;98911.28;;;18.08;55.57
59168;BME280;70412;55.048;73.268;2023-06-26T13:48:01;98900.28;;;18.11;55.65
59168;BME280;70412;55.048;73.268;2023-06-26T13:51:04;98908.13;;;18.19;55.03
59168;BME280;70412;55.048;73.268;2023-06-26T13:54:07;98903.56;;;18.13;55.76
59168;BME280;70412;55.048;73.268;2023-06-26T13:57:10;98908.50;;;17.95;56.97
59168;BME280;70412;55.048;73.268;2023-06-26T14:00:13;98903.81;;;17.97;56.39
59168;BME280;70412;55.048;73.268;2023-06-26T14:03:19;98880.84;;;17.83;56.54
59168;BME280;70412;55.048;73.268;2023-06-26T14:06:22;98891.44;;;17.83;56.96
59168;BME280;70412;55.048;73.268;2023-06-26T14:09:25;98895.47;;;17.79;57.57
59168;BME280;70412;55.048;73.268;2023-06-26T14:12:28;98897.06;;;17.73;57.77
59168;BME280;70412;55.048;73.268;2023-06-26T14:15:30;98893.72;;;17.65;58.55
59168;BME280;70412;55.048;73.268;2023-06-26T14:18:33;98887.72;;;17.62;58.92
59168;BME280;70412;55.048;73.268;2023-06-26T14:21:37;98891.22;;;17.63;58.53
59168;BME280;70412;55.048;73.268;2023-06-26T14:24:39;98878.81;;;17.49;59.60
59168;BME280;70412;55.048;73.268;2023-06-26T14:27:41;98872.09;;;17.31;60.17
59168;BME280;70412;55.048;73.268;2023-06-26T14:30:44;98873.78;;;17.39;60.64
59168;BME280;70412;55.048;73.268;2023-06-26T14:33:46;98874.00;;;17.23;61.68
59168;BME280;70412;55.048;73.268;2023-06-26T14:36:48;98876.03;;;17.21;61.87
59168;BME280;70412;55.048;73.268;2023-06-26T14:40:02;98873.75;;;17.03;62.59
59168;BME280;70412;55.048;73.268;2023-06-26T14:43:10;98872.50;;;16.99;62.87
59168;BME280;70412;55.048;73.268;2023-06-26T14:46:12;98847.28;;;16.88;62.71
59168;BME280;70412;55.048;73.268;2023-06-26T14:49:15;98858.06;;;16.87;63.50
59168;BME280;70412;55.048;73.268;2023-06-26T14:52:18;98854.66;;;16.78;63.84
59168;BME280;70412;55.048;73.268;2023-06-26T14:55:20;98836.88;;;16.72;63.80
59168;BME280;70412;55.048;73.268;2023-06-26T14:58:23;98861.25;;;16.82;63.48
59168;BME280;70412;55.048;73.268;2023-06-26T15:01:26;98855.41;;;16.72;64.41
59168;BME280;70412;55.048;73.268;2023-06-26T15:04:28;98846.22;;;16.60;65.28
59168;BME280;70412;55.048;73.268;2023-06-26T15:07:31;98834.47;;;16.48;65.56
59168;BME280;70412;55.048;73.268;2023-06-26T15:10:33;98847.88;;;16.61;65.42
59168;BME280;70412;55.048;73.268;2023-06-26T15:13:36;98831.88;;;16.39;65.48
59168;BME280;70412;55.048;73.268;2023-06-26T15:16:38;98848.59;;;16.55;64.88
59168;BME280;70412;55.048;73.268;2023-06-26T15:19:41;98849.34;;;16.49;65.09
59168;BME280;70412;55.048;73.268;2023-06-26T15:22:43;98793.75;;;16.19;64.28
59168;BME280;70412;55.048;73.268;2023-06-26T15:25:45;98854.63;;;16.49;64.24
59168;BME280;70412;55.048;73.268;2023-06-26T15:28:48;98846.59;;;16.57;63.53
59168;BME280;70412;55.048;73.268;2023-06-26T15:31:51;98857.81;;;16.59;62.92
59168;BME280;70412;55.048;73.268;2023-06-26T15:34:54;98856.28;;;16.50;62.49
59168;BME280;70412;55.048;73.268;2023-06-26T15:37:56;98880.16;;;16.41;62.49
59168;BME280;70412;55.048;73.268;2023-06-26T15:41:00;98900.19;;;16.21;62.92
59168;BME280;70412;55.048;73.268;2023-06-26T15:44:03;98929.69;;;16.33;62.84
59168;BME280;70412;55.048;73.268;2023-06-26T15:47:06;98928.25;;;16.45;61.95
59168;BME280;70412;55.048;73.268;2023-06-26T15:50:09;98912.28;;;16.38;62.17
59168;BME280;70412;55.048;73.268;2023-06-26T15:53:16;98905.25;;;16.08;65.72
59168;BME280;70412;55.048;73.268;2023-06-26T15:56:20;98862.31;;;15.52;69.85
59168;BME280;70412;55.048;73.268;2023-06-26T15:59:22;98849.41;;;15.26;71.71
59168;BME280;70412;55.048;73.268;2023-06-26T16:02:25;98845.00;;;15.18;67.27
59168;BME280;70412;55.048;73.268;2023-06-26T16:05:28;98841.97;;;14.90;67.61
59168;BME280;70412;55.048;73.268;2023-06-26T16:08:30;98845.88;;;14.63;69.57